sensor_id;sensor_type;location;lat;lon;timestamp;pressure;altitude;pressure_sealevel;temperature;humidity
10992;BME280;5549;47.028;15.514;2022-12-29T00:01:07;96771.09;;;3.01;66.35
10992;BME280;5549;47.028;15.514;2022-12-29T00:03:35;96776.13;;;3.04;66.08
10992;BME280;5549;47.028;15.514;2022-12-29T00:06:05;96776.75;;;3.09;65.29
10992;BME280;5549;47.028;15.514;2022-12-29T00:08:33;96785.81;;;3.17;65.20
10992;BME280;5549;47.028;15.514;2022-12-29T00:11:09;96780.31;;;3.23;64.86
10992;BME280;5549;47.028;15.514;2022-12-29T00:13:38;96779.63;;;3.20;65.01
10992;BME280;5549;47.028;15.514;2022-12-29T00:16:23;96777.59;;;3.09;65.12
10992;BME280;5549;47.028;15.514;2022-12-29T00:18:52;96782.78;;;3.09;65.11
10992;BME280;5549;47.028;15.514;2022-12-29T00:21:22;96779.94;;;3.14;65.08
10992;BME280;5549;47.028;15.514;2022-12-29T00:24:12;96779.78;;;3.17;65.04
10992;BME280;5549;47.028;15.514;2022-12-29T00:27:11;96779.56;;;3.21;64.76
10992;BME280;5549;47.028;15.514;2022-12-29T00:29:57;96768.25;;;3.22;64.36
10992;BME280;5549;47.028;15.514;2022-12-29T00:32:42;96774.28;;;3.23;63.98
10992;BME280;5549;47.028;15.514;2022-12-29T00:35:30;96770.94;;;3.21;63.75
10992;BME280;5549;47.028;15.514;2022-12-29T00:38:03;96767.72;;;3.16;64.08
10992;BME280;5549;47.028;15.514;2022-12-29T00:40:52;96764.38;;;3.14;63.80
10992;BME280;5549;47.028;15.514;2022-12-29T00:43:41;96758.59;;;3.09;64.07
10992;BME280;5549;47.028;15.514;2022-12-29T00:46:26;96758.13;;;3.01;64.83
10992;BME280;5549;47.028;15.514;2022-12-29T00:48:54;96749.75;;;2.96;64.93
10992;BME280;5549;47.028;15.514;2022-12-29T00:51:39;96753.19;;;2.96;64.44
10992;BME280;5549;47.028;15.514;2022-12-29T00:54:07;96752.41;;;2.94;64.84
10992;BME280;5549;47.028;15.514;2022-12-29T00:56:35;96749.75;;;2.96;64.88
10992;BME280;5549;47.028;15.514;2022-12-29T00:59:06;96755.53;;;3.01;64.84
10992;BME280;5549;47.028;15.514;2022-12-29T01:01:38;96757.97;;;3.04;64.51
10992;BME280;5549;47.028;15.514;2022-12-29T01:04:09;96754.31;;;3.08;64.52
10992;BME280;5549;47.028;15.514;2022-12-29T01:06:38;96750.63;;;3.12;64.16
10992;BME280;5549;47.028;15.514;2022-12-29T01:09:10;96760.09;;;3.13;64.41
10992;BME280;5549;47.028;15.514;2022-12-29T01:11:57;96747.44;;;3.07;65.14
10992;BME280;5549;47.028;15.514;2022-12-29T01:14:26;96758.13;;;3.01;65.61
10992;BME280;5549;47.028;15.514;2022-12-29T01:16:54;96759.81;;;3.02;65.54
10992;BME280;5549;47.028;15.514;2022-12-29T01:19:23;96763.25;;;3.02;65.63
10992;BME280;5549;47.028;15.514;2022-12-29T01:21:51;96758.81;;;3.04;65.40
10992;BME280;5549;47.028;15.514;2022-12-29T01:24:20;96763.00;;;3.07;64.93
10992;BME280;5549;47.028;15.514;2022-12-29T01:26:47;96757.66;;;3.10;64.98
10992;BME280;5549;47.028;15.514;2022-12-29T01:29:18;96770.47;;;3.13;64.87
10992;BME280;5549;47.028;15.514;2022-12-29T01:31:47;96765.22;;;3.14;64.54
10992;BME280;5549;47.028;15.514;2022-12-29T01:34:15;96765.13;;;3.16;64.58
10992;BME280;5549;47.028;15.514;2022-12-29T01:36:43;96759.09;;;3.15;64.42
10992;BME280;5549;47.028;15.514;2022-12-29T01:39:10;96761.69;;;3.15;63.89
10992;BME280;5549;47.028;15.514;2022-12-29T01:41:40;96759.88;;;3.17;64.06
10992;BME280;5549;47.028;15.514;2022-12-29T01:44:50;96765.91;;;3.18;63.97
10992;BME280;5549;47.028;15.514;2022-12-29T01:47:27;96753.84;;;3.17;64.22
10992;BME280;5549;47.028;15.514;2022-12-29T01:49:58;96743.63;;;3.14;63.74
10992;BME280;5549;47.028;15.514;2022-12-29T01:52:32;96741.09;;;3.12;63.75
10992;BME280;5549;47.028;15.514;2022-12-29T01:55:02;96739.41;;;3.11;63.84
10992;BME280;5549;47.028;15.514;2022-12-29T01:57:34;96738.59;;;3.11;63.80
10992;BME280;5549;47.028;15.514;2022-12-29T02:00:06;96740.41;;;3.09;64.06
10992;BME280;5549;47.028;15.514;2022-12-29T02:02:37;96740.41;;;3.09;63.92
10992;BME280;5549;47.028;15.514;2022-12-29T02:05:10;96726.84;;;3.04;64.25
10992;BME280;5549;47.028;15.514;2022-12-29T02:07:41;96727.31;;;2.95;64.55
10992;BME280;5549;47.028;15.514;2022-12-29T02:10:09;96726.56;;;2.93;64.31
10992;BME280;5549;47.028;15.514;2022-12-29T02:12:37;96729.16;;;2.93;64.87
10992;BME280;5549;47.028;15.514;2022-12-29T02:15:06;96725.78;;;2.90;64.77
10992;BME280;5549;47.028;15.514;2022-12-29T02:18:01;96719.09;;;2.86;64.37
10992;BME280;5549;47.028;15.514;2022-12-29T02:21:18;96713.13;;;2.84;64.33
10992;BME280;5549;47.028;15.514;2022-12-29T02:30:42;96697.22;;;2.75;64.23
10992;BME280;5549;47.028;15.514;2022-12-29T02:33:30;96698.97;;;2.74;64.33
10992;BME280;5549;47.028;15.514;2022-12-29T02:36:11;96691.19;;;2.74;64.46
10992;BME280;5549;47.028;15.514;2022-12-29T02:38:59;96697.44;;;2.70;65.23
10992;BME280;5549;47.028;15.514;2022-12-29T02:41:36;96706.38;;;2.65;65.18
10992;BME280;5549;47.028;15.514;2022-12-29T02:44:12;96704.63;;;2.65;65.74
10992;BME280;5549;47.028;15.514;2022-12-29T02:46:53;96704.53;;;2.67;65.28
10992;BME280;5549;47.028;15.514;2022-12-29T02:49:30;96699.59;;;2.62;65.86
10992;BME280;5549;47.028;15.514;2022-12-29T02:52:07;96695.31;;;2.61;65.65
10992;BME280;5549;47.028;15.514;2022-12-29T02:54:39;96686.53;;;2.64;65.12
10992;BME280;5549;47.028;15.514;2022-12-29T02:57:13;96690.91;;;2.63;65.91
10992;BME280;5549;47.028;15.514;2022-12-29T02:59:41;96695.41;;;2.60;66.16
10992;BME280;5549;47.028;15.514;2022-12-29T03:02:33;96696.22;;;2.60;66.14
10992;BME280;5549;47.028;15.514;2022-12-29T03:05:20;96692.28;;;2.53;66.47
10992;BME280;5549;47.028;15.514;2022-12-29T03:07:58;96692.50;;;2.48;66.53
10992;BME280;5549;47.028;15.514;2022-12-29T03:10:39;96696.00;;;2.47;66.42
10992;BME280;5549;47.028;15.514;2022-12-29T03:13:23;96697.53;;;2.51;66.09
10992;BME280;5549;47.028;15.514;2022-12-29T03:16:21;96690.38;;;2.56;66.48
10992;BME280;5549;47.028;15.514;2022-12-29T03:18:59;96691.88;;;2.61;66.57
10992;BME280;5549;47.028;15.514;2022-12-29T03:21:37;96692.13;;;2.56;67.36
10992;BME280;5549;47.028;15.514;2022-12-29T03:24:27;96684.13;;;2.43;67.66
10992;BME280;5549;47.028;15.514;2022-12-29T03:26:59;96680.22;;;2.35;67.44
10992;BME280;5549;47.028;15.514;2022-12-29T03:29:31;96686.47;;;2.31;67.75
10992;BME280;5549;47.028;15.514;2022-12-29T03:32:03;96689.06;;;2.31;67.94
10992;BME280;5549;47.028;15.514;2022-12-29T03:34:33;96678.72;;;2.31;67.61
10992;BME280;5549;47.028;15.514;2022-12-29T03:37:06;96692.44;;;2.33;67.39
10992;BME280;5549;47.028;15.514;2022-12-29T03:39:37;96681.22;;;2.32;68.45
10992;BME280;5549;47.028;15.514;2022-12-29T03:42:08;96681.16;;;2.34;68.47
10992;BME280;5549;47.028;15.514;2022-12-29T03:44:41;96679.94;;;2.41;68.21
10992;BME280;5549;47.028;15.514;2022-12-29T03:47:11;96674.50;;;2.45;68.28
10992;BME280;5549;47.028;15.514;2022-12-29T03:49:43;96675.19;;;2.49;67.88
10992;BME280;5549;47.028;15.514;2022-12-29T03:52:13;96681.28;;;2.48;68.68
10992;BME280;5549;47.028;15.514;2022-12-29T03:54:40;96679.63;;;2.47;68.93
10992;BME280;5549;47.028;15.514;2022-12-29T03:57:09;96675.59;;;2.41;69.61
10992;BME280;5549;47.028;15.514;2022-12-29T03:59:36;96683.44;;;2.40;70.06
10992;BME280;5549;47.028;15.514;2022-12-29T04:02:04;96690.06;;;2.45;69.41
10992;BME280;5549;47.028;15.514;2022-12-29T04:04:31;96688.47;;;2.43;69.54
10992;BME280;5549;47.028;15.514;2022-12-29T04:07:03;96692.13;;;2.39;69.87
10992;BME280;5549;47.028;15.514;2022-12-29T04:09:30;96698.97;;;2.40;69.35
10992;BME280;5549;47.028;15.514;2022-12-29T04:11:58;96686.94;;;2.39;69.56
10992;BME280;5549;47.028;15.514;2022-12-29T04:14:26;96681.75;;;2.39;69.35
10992;BME280;5549;47.028;15.514;2022-12-29T04:16:53;96678.25;;;2.40;69.33
10992;BME280;5549;47.028;15.514;2022-12-29T04:19:23;96682.91;;;2.33;69.94
10992;BME280;5549;47.028;15.514;2022-12-29T04:21:50;96681.59;;;2.42;69.13
10992;BME280;5549;47.028;15.514;2022-12-29T04:24:21;96686.56;;;2.46;69.21
10992;BME280;5549;47.028;15.514;2022-12-29T04:26:49;96680.53;;;2.46;69.20
10992;BME280;5549;47.028;15.514;2022-12-29T04:29:17;96682.81;;;2.52;68.67
10992;BME280;5549;47.028;15.514;2022-12-29T04:31:44;96680.84;;;2.57;68.58
10992;BME280;5549;47.028;15.514;2022-12-29T04:34:12;96677.09;;;2.63;68.48
10992;BME280;5549;47.028;15.514;2022-12-29T04:36:39;96677.84;;;2.65;67.90
10992;BME280;5549;47.028;15.514;2022-12-29T04:39:07;96672.66;;;2.65;67.93
10992;BME280;5549;47.028;15.514;2022-12-29T04:41:39;96675.09;;;2.68;67.61
10992;BME280;5549;47.028;15.514;2022-12-29T04:44:06;96680.06;;;2.72;67.75
10992;BME280;5549;47.028;15.514;2022-12-29T04:46:33;96683.41;;;2.74;67.13
10992;BME280;5549;47.028;15.514;2022-12-29T04:49:01;96680.06;;;2.72;67.41
10992;BME280;5549;47.028;15.514;2022-12-29T04:51:34;96680.97;;;2.71;67.62
10992;BME280;5549;47.028;15.514;2022-12-29T04:54:02;96677.38;;;2.74;67.32
10992;BME280;5549;47.028;15.514;2022-12-29T04:56:30;96674.72;;;2.75;66.82
10992;BME280;5549;47.028;15.514;2022-12-29T04:58:59;96671.28;;;2.75;66.42
10992;BME280;5549;47.028;15.514;2022-12-29T05:01:26;96675.03;;;2.69;67.85
10992;BME280;5549;47.028;15.514;2022-12-29T05:03:56;96665.56;;;2.68;67.39
10992;BME280;5549;47.028;15.514;2022-12-29T05:06:24;96662.28;;;2.65;67.36
10992;BME280;5549;47.028;15.514;2022-12-29T05:08:54;96671.81;;;2.64;67.91
10992;BME280;5549;47.028;15.514;2022-12-29T05:11:21;96670.91;;;2.65;67.59
10992;BME280;5549;47.028;15.514;2022-12-29T05:13:49;96670.16;;;2.63;66.72
10992;BME280;5549;47.028;15.514;2022-12-29T05:16:18;96670.31;;;2.60;66.98
10992;BME280;5549;47.028;15.514;2022-12-29T05:18:45;96671.38;;;2.56;67.64
10992;BME280;5549;47.028;15.514;2022-12-29T05:21:15;96676.56;;;2.56;67.52
10992;BME280;5549;47.028;15.514;2022-12-29T05:23:42;96687.53;;;2.61;67.49
10992;BME280;5549;47.028;15.514;2022-12-29T05:26:10;96686.53;;;2.64;67.38
10992;BME280;5549;47.028;15.514;2022-12-29T05:28:37;96681.22;;;2.67;67.01
10992;BME280;5549;47.028;15.514;2022-12-29T05:31:05;96687.31;;;2.66;66.81
10992;BME280;5549;47.028;15.514;2022-12-29T05:33:34;96690.22;;;2.60;67.52
10992;BME280;5549;47.028;15.514;2022-12-29T05:36:04;96692.88;;;2.41;68.42
10992;BME280;5549;47.028;15.514;2022-12-29T05:38:35;96691.44;;;2.35;68.56
10992;BME280;5549;47.028;15.514;2022-12-29T05:41:02;96689.97;;;2.30;68.42
10992;BME280;5549;47.028;15.514;2022-12-29T05:43:30;96694.25;;;2.31;68.62
10992;BME280;5549;47.028;15.514;2022-12-29T05:46:00;96700.66;;;2.23;69.20
10992;BME280;5549;47.028;15.514;2022-12-29T05:48:28;96704.44;;;2.16;69.70
10992;BME280;5549;47.028;15.514;2022-12-29T05:50:57;96702.78;;;2.15;69.45
10992;BME280;5549;47.028;15.514;2022-12-29T05:53:25;96695.31;;;2.09;70.17
10992;BME280;5549;47.028;15.514;2022-12-29T05:55:53;96697.56;;;1.98;70.80
10992;BME280;5549;47.028;15.514;2022-12-29T05:58:20;96696.88;;;1.95;70.92
10992;BME280;5549;47.028;15.514;2022-12-29T06:00:51;96699.53;;;1.93;70.86
10992;BME280;5549;47.028;15.514;2022-12-29T06:03:18;96703.03;;;1.92;70.68
10992;BME280;5549;47.028;15.514;2022-12-29T06:05:46;96708.22;;;1.92;70.63
10992;BME280;5549;47.028;15.514;2022-12-29T06:08:15;96714.94;;;1.96;70.18
10992;BME280;5549;47.028;15.514;2022-12-29T06:10:43;96705.88;;;2.05;69.93
10992;BME280;5549;47.028;15.514;2022-12-29T06:13:10;96702.16;;;2.10;69.65
10992;BME280;5549;47.028;15.514;2022-12-29T06:15:38;96714.75;;;2.18;69.69
10992;BME280;5549;47.028;15.514;2022-12-29T06:18:06;96714.38;;;2.25;69.12
10992;BME280;5549;47.028;15.514;2022-12-29T06:20:33;96716.72;;;2.30;68.61
10992;BME280;5549;47.028;15.514;2022-12-29T06:23:03;96716.50;;;2.35;68.33
10992;BME280;5549;47.028;15.514;2022-12-29T06:25:34;96713.31;;;2.30;68.15
10992;BME280;5549;47.028;15.514;2022-12-29T06:28:03;96711.47;;;2.32;68.60
10992;BME280;5549;47.028;15.514;2022-12-29T06:30:31;96719.03;;;2.36;68.20
10992;BME280;5549;47.028;15.514;2022-12-29T06:32:59;96724.75;;;2.43;67.37
10992;BME280;5549;47.028;15.514;2022-12-29T06:35:26;96717.59;;;2.48;67.70
10992;BME280;5549;47.028;15.514;2022-12-29T06:37:54;96714.00;;;2.50;67.32
10992;BME280;5549;47.028;15.514;2022-12-29T06:40:21;96711.41;;;2.50;66.89
10992;BME280;5549;47.028;15.514;2022-12-29T06:42:50;96716.75;;;2.47;67.36
10992;BME280;5549;47.028;15.514;2022-12-29T06:45:18;96712.25;;;2.51;67.62
10992;BME280;5549;47.028;15.514;2022-12-29T06:47:45;96715.59;;;3.20;77.97
10992;BME280;5549;47.028;15.514;2022-12-29T06:50:14;96713.91;;;4.15;83.72
10992;BME280;5549;47.028;15.514;2022-12-29T06:52:42;96715.25;;;4.97;84.59
10992;BME280;5549;47.028;15.514;2022-12-29T06:55:10;96718.81;;;5.67;82.09
10992;BME280;5549;47.028;15.514;2022-12-29T06:57:37;96707.69;;;6.33;78.38
10992;BME280;5549;47.028;15.514;2022-12-29T07:00:10;96699.81;;;6.99;73.12
10992;BME280;5549;47.028;15.514;2022-12-29T07:02:37;96699.03;;;7.61;68.79
10992;BME280;5549;47.028;15.514;2022-12-29T07:05:05;96698.69;;;8.15;65.12
10992;BME280;5549;47.028;15.514;2022-12-29T07:07:33;96698.38;;;8.67;62.09
10992;BME280;5549;47.028;15.514;2022-12-29T07:10:01;96706.94;;;9.04;59.20
10992;BME280;5549;47.028;15.514;2022-12-29T07:12:28;96708.75;;;9.26;57.40
10992;BME280;5549;47.028;15.514;2022-12-29T07:14:58;96699.84;;;9.62;55.39
10992;BME280;5549;47.028;15.514;2022-12-29T07:17:30;96708.88;;;10.03;53.84
10992;BME280;5549;47.028;15.514;2022-12-29T07:19:58;96705.03;;;10.40;52.66
10992;BME280;5549;47.028;15.514;2022-12-29T07:22:25;96701.59;;;10.60;51.70
10992;BME280;5549;47.028;15.514;2022-12-29T07:24:53;96700.41;;;10.85;51.68
10992;BME280;5549;47.028;15.514;2022-12-29T07:27:22;96690.53;;;11.19;50.83
10992;BME280;5549;47.028;15.514;2022-12-29T07:29:52;96692.34;;;11.49;49.37
10992;BME280;5549;47.028;15.514;2022-12-29T07:32:22;96695.78;;;11.71;48.17
10992;BME280;5549;47.028;15.514;2022-12-29T07:34:52;96699.75;;;11.86;47.60
10992;BME280;5549;47.028;15.514;2022-12-29T07:37:22;96697.81;;;11.88;45.65
10992;BME280;5549;47.028;15.514;2022-12-29T07:39:49;96697.41;;;11.93;45.13
10992;BME280;5549;47.028;15.514;2022-12-29T07:42:17;96703.09;;;11.98;44.75
10992;BME280;5549;47.028;15.514;2022-12-29T07:44:44;96699.63;;;11.97;44.28
10992;BME280;5549;47.028;15.514;2022-12-29T07:47:12;96706.81;;;11.85;43.17
10992;BME280;5549;47.028;15.514;2022-12-29T07:49:42;96705.47;;;11.70;44.19
10992;BME280;5549;47.028;15.514;2022-12-29T07:52:11;96705.69;;;11.57;44.39
10992;BME280;5549;47.028;15.514;2022-12-29T07:54:40;96699.28;;;11.50;44.97
10992;BME280;5549;47.028;15.514;2022-12-29T07:57:08;96707.84;;;11.43;44.02
10992;BME280;5549;47.028;15.514;2022-12-29T07:59:36;96706.41;;;11.39;43.94
10992;BME280;5549;47.028;15.514;2022-12-29T08:02:08;96711.34;;;11.53;44.76
10992;BME280;5549;47.028;15.514;2022-12-29T08:04:36;96707.34;;;11.79;44.10
10992;BME280;5549;47.028;15.514;2022-12-29T08:07:04;96709.34;;;12.06;43.80
10992;BME280;5549;47.028;15.514;2022-12-29T08:09:34;96710.31;;;12.05;40.72
10992;BME280;5549;47.028;15.514;2022-12-29T08:12:01;96703.81;;;11.69;40.68
10992;BME280;5549;47.028;15.514;2022-12-29T08:14:31;96712.50;;;11.39;41.91
10992;BME280;5549;47.028;15.514;2022-12-29T08:16:59;96716.00;;;11.19;41.90
10992;BME280;5549;47.028;15.514;2022-12-29T08:19:26;96721.75;;;10.92;41.96
10992;BME280;5549;47.028;15.514;2022-12-29T08:21:54;96717.66;;;10.78;43.42
10992;BME280;5549;47.028;15.514;2022-12-29T08:24:24;96714.69;;;10.72;43.48
10992;BME280;5549;47.028;15.514;2022-12-29T08:26:53;96712.44;;;10.67;43.39
10992;BME280;5549;47.028;15.514;2022-12-29T08:29:21;96720.06;;;10.70;44.15
10992;BME280;5549;47.028;15.514;2022-12-29T08:31:49;96716.31;;;10.52;43.47
10992;BME280;5549;47.028;15.514;2022-12-29T08:34:16;96719.56;;;10.44;44.49
10992;BME280;5549;47.028;15.514;2022-12-29T08:36:44;96714.06;;;10.47;44.53
10992;BME280;5549;47.028;15.514;2022-12-29T08:39:11;96711.06;;;10.52;44.32
10992;BME280;5549;47.028;15.514;2022-12-29T08:41:39;96725.81;;;10.64;43.60
10992;BME280;5549;47.028;15.514;2022-12-29T08:44:11;96719.06;;;10.50;43.39
10992;BME280;5549;47.028;15.514;2022-12-29T08:46:39;96719.66;;;10.54;43.19
10992;BME280;5549;47.028;15.514;2022-12-29T08:49:06;96720.97;;;10.37;43.68
10992;BME280;5549;47.028;15.514;2022-12-29T08:51:34;96713.84;;;10.28;44.50
10992;BME280;5549;47.028;15.514;2022-12-29T08:54:01;96719.09;;;10.28;44.32
10992;BME280;5549;47.028;15.514;2022-12-29T08:56:29;96719.44;;;10.35;44.17
10992;BME280;5549;47.028;15.514;2022-12-29T08:58:57;96730.03;;;10.55;44.05
10992;BME280;5549;47.028;15.514;2022-12-29T09:01:26;96730.06;;;10.76;43.72
10992;BME280;5549;47.028;15.514;2022-12-29T09:03:54;96727.78;;;10.83;43.69
10992;BME280;5549;47.028;15.514;2022-12-29T09:06:22;96730.22;;;10.96;43.04
10992;BME280;5549;47.028;15.514;2022-12-29T09:08:49;96728.19;;;10.99;42.88
10992;BME280;5549;47.028;15.514;2022-12-29T09:11:22;96723.38;;;11.04;43.38
10992;BME280;5549;47.028;15.514;2022-12-29T09:13:50;96718.13;;;11.04;42.86
10992;BME280;5549;47.028;15.514;2022-12-29T09:16:20;96722.28;;;11.07;42.70
10992;BME280;5549;47.028;15.514;2022-12-29T09:18:49;96721.25;;;11.19;42.80
10992;BME280;5549;47.028;15.514;2022-12-29T09:21:17;96722.47;;;11.36;42.86
10992;BME280;5549;47.028;15.514;2022-12-29T09:23:45;96722.25;;;11.48;42.22
10992;BME280;5549;47.028;15.514;2022-12-29T09:26:14;96712.16;;;11.53;41.36
10992;BME280;5549;47.028;15.514;2022-12-29T09:28:44;96719.66;;;11.58;42.00
10992;BME280;5549;47.028;15.514;2022-12-29T09:31:15;96725.28;;;11.74;41.92
10992;BME280;5549;47.028;15.514;2022-12-29T09:33:45;96716.78;;;11.92;41.73
10992;BME280;5549;47.028;15.514;2022-12-29T09:36:16;96720.13;;;11.94;41.82
10992;BME280;5549;47.028;15.514;2022-12-29T09:38:43;96722.22;;;12.00;41.21
10992;BME280;5549;47.028;15.514;2022-12-29T09:41:18;96712.91;;;12.26;41.69
10992;BME280;5549;47.028;15.514;2022-12-29T09:43:59;96708.78;;;12.52;40.94
10992;BME280;5549;47.028;15.514;2022-12-29T09:46:34;96703.81;;;12.69;40.21
10992;BME280;5549;47.028;15.514;2022-12-29T09:49:15;96696.16;;;12.85;40.70
10992;BME280;5549;47.028;15.514;2022-12-29T09:51:49;96688.41;;;12.93;39.41
10992;BME280;5549;47.028;15.514;2022-12-29T09:54:32;96689.66;;;12.89;40.80
10992;BME280;5549;47.028;15.514;2022-12-29T09:57:05;96690.31;;;13.20;40.77
10992;BME280;5549;47.028;15.514;2022-12-29T09:59:43;96687.63;;;13.49;40.57
10992;BME280;5549;47.028;15.514;2022-12-29T10:02:27;96685.00;;;13.76;39.86
10992;BME280;5549;47.028;15.514;2022-12-29T10:04:57;96685.25;;;13.93;38.95
10992;BME280;5549;47.028;15.514;2022-12-29T10:07:36;96672.53;;;14.06;38.34
10992;BME280;5549;47.028;15.514;2022-12-29T10:10:20;96662.53;;;14.27;38.65
10992;BME280;5549;47.028;15.514;2022-12-29T10:13:16;96666.13;;;14.54;37.89
10992;BME280;5549;47.028;15.514;2022-12-29T10:15:58;96669.97;;;14.77;37.70
10992;BME280;5549;47.028;15.514;2022-12-29T10:19:00;96667.53;;;15.01;36.44
10992;BME280;5549;47.028;15.514;2022-12-29T10:21:47;96665.88;;;15.00;35.97
10992;BME280;5549;47.028;15.514;2022-12-29T10:24:19;96664.00;;;14.93;36.32
10992;BME280;5549;47.028;15.514;2022-12-29T10:26:51;96662.25;;;15.01;36.32
10992;BME280;5549;47.028;15.514;2022-12-29T10:29:24;96662.34;;;15.18;37.46
10992;BME280;5549;47.028;15.514;2022-12-29T10:32:00;96658.56;;;15.46;37.03
10992;BME280;5549;47.028;15.514;2022-12-29T10:34:30;96653.47;;;15.70;36.54
10992;BME280;5549;47.028;15.514;2022-12-29T10:37:05;96654.16;;;15.81;35.74
10992;BME280;5549;47.028;15.514;2022-12-29T10:39:45;96649.19;;;15.78;36.12
10992;BME280;5549;47.028;15.514;2022-12-29T10:42:20;96650.56;;;15.90;36.62
10992;BME280;5549;47.028;15.514;2022-12-29T10:44:51;96649.97;;;16.04;36.67
10992;BME280;5549;47.028;15.514;2022-12-29T10:47:25;96646.03;;;16.24;37.09
10992;BME280;5549;47.028;15.514;2022-12-29T10:49:55;96643.41;;;16.32;35.88
10992;BME280;5549;47.028;15.514;2022-12-29T10:52:27;96642.06;;;16.28;35.54
10992;BME280;5549;47.028;15.514;2022-12-29T10:55:01;96646.25;;;16.47;35.29
10992;BME280;5549;47.028;15.514;2022-12-29T10:57:36;96648.13;;;16.71;34.88
10992;BME280;5549;47.028;15.514;2022-12-29T11:00:12;96647.81;;;16.90;34.81
10992;BME280;5549;47.028;15.514;2022-12-29T11:03:07;96645.97;;;17.07;34.60
10992;BME280;5549;47.028;15.514;2022-12-29T11:05:45;96647.78;;;17.23;33.62
10992;BME280;5549;47.028;15.514;2022-12-29T11:08:19;96637.66;;;17.43;34.27
10992;BME280;5549;47.028;15.514;2022-12-29T11:11:00;96634.44;;;17.63;32.74
10992;BME280;5549;47.028;15.514;2022-12-29T11:13:33;96619.09;;;17.90;32.28
10992;BME280;5549;47.028;15.514;2022-12-29T11:16:01;96623.28;;;18.15;32.11
10992;BME280;5549;47.028;15.514;2022-12-29T11:18:35;96624.38;;;18.29;31.60
10992;BME280;5549;47.028;15.514;2022-12-29T11:21:06;96620.63;;;18.46;31.51
10992;BME280;5549;47.028;15.514;2022-12-29T11:23:37;96618.34;;;18.66;30.72
10992;BME280;5549;47.028;15.514;2022-12-29T11:26:20;96623.00;;;18.87;30.19
10992;BME280;5549;47.028;15.514;2022-12-29T11:29:18;96626.41;;;18.96;30.43
10992;BME280;5549;47.028;15.514;2022-12-29T11:31:51;96625.69;;;19.02;29.48
10992;BME280;5549;47.028;15.514;2022-12-29T11:34:24;96622.63;;;19.13;29.43
10992;BME280;5549;47.028;15.514;2022-12-29T11:37:00;96613.56;;;19.22;29.75
10992;BME280;5549;47.028;15.514;2022-12-29T11:39:37;96615.31;;;19.30;28.87
10992;BME280;5549;47.028;15.514;2022-12-29T11:42:15;96620.38;;;19.25;28.43
10992;BME280;5549;47.028;15.514;2022-12-29T11:44:46;96619.47;;;19.32;28.84
10992;BME280;5549;47.028;15.514;2022-12-29T11:47:27;96619.91;;;19.21;28.49
10992;BME280;5549;47.028;15.514;2022-12-29T11:50:01;96621.19;;;19.25;28.85
10992;BME280;5549;47.028;15.514;2022-12-29T11:52:34;96618.81;;;19.30;28.44
10992;BME280;5549;47.028;15.514;2022-12-29T11:55:05;96621.56;;;19.22;28.87
10992;BME280;5549;47.028;15.514;2022-12-29T11:57:36;96619.19;;;19.27;28.45
10992;BME280;5549;47.028;15.514;2022-12-29T12:00:16;96613.59;;;19.37;28.38
10992;BME280;5549;47.028;15.514;2022-12-29T12:02:54;96611.78;;;19.52;27.82
10992;BME280;5549;47.028;15.514;2022-12-29T12:05:35;96606.72;;;19.72;27.82
10992;BME280;5549;47.028;15.514;2022-12-29T12:08:14;96599.91;;;19.84;26.82
10992;BME280;5549;47.028;15.514;2022-12-29T12:10:52;96606.53;;;19.88;26.78
10992;BME280;5549;47.028;15.514;2022-12-29T12:13:31;96604.53;;;19.61;27.04
10992;BME280;5549;47.028;15.514;2022-12-29T12:16:07;96606.66;;;19.65;28.21
10992;BME280;5549;47.028;15.514;2022-12-29T12:18:41;96609.59;;;19.70;27.50
10992;BME280;5549;47.028;15.514;2022-12-29T12:21:21;96597.53;;;19.60;26.61
10992;BME280;5549;47.028;15.514;2022-12-29T12:24:31;96601.47;;;19.34;26.54
10992;BME280;5549;47.028;15.514;2022-12-29T12:27:10;96592.94;;;19.01;26.58
10992;BME280;5549;47.028;15.514;2022-12-29T12:29:50;96605.56;;;18.84;27.19
10992;BME280;5549;47.028;15.514;2022-12-29T12:32:27;96594.44;;;18.58;27.58
10992;BME280;5549;47.028;15.514;2022-12-29T12:34:57;96596.25;;;18.35;28.18
10992;BME280;5549;47.028;15.514;2022-12-29T12:38:03;96586.97;;;18.31;28.75
10992;BME280;5549;47.028;15.514;2022-12-29T12:40:54;96589.66;;;18.31;28.38
10992;BME280;5549;47.028;15.514;2022-12-29T12:43:41;96583.59;;;18.14;28.48
10992;BME280;5549;47.028;15.514;2022-12-29T12:53:01;96582.13;;;17.80;29.16
10992;BME280;5549;47.028;15.514;2022-12-29T12:55:48;96580.69;;;17.70;29.61
10992;BME280;5549;47.028;15.514;2022-12-29T12:58:27;96585.84;;;17.55;29.99
10992;BME280;5549;47.028;15.514;2022-12-29T13:01:14;96592.84;;;17.31;29.85
10992;BME280;5549;47.028;15.514;2022-12-29T13:04:12;96583.13;;;16.99;30.70
10992;BME280;5549;47.028;15.514;2022-12-29T13:06:52;96589.13;;;16.77;31.09
10992;BME280;5549;47.028;15.514;2022-12-29T13:09:42;96592.91;;;16.50;32.03
10992;BME280;5549;47.028;15.514;2022-12-29T13:12:24;96600.34;;;16.30;32.06
10992;BME280;5549;47.028;15.514;2022-12-29T13:15:09;96595.34;;;16.19;32.91
10992;BME280;5549;47.028;15.514;2022-12-29T13:17:51;96592.50;;;16.04;32.64
10992;BME280;5549;47.028;15.514;2022-12-29T13:20:32;96584.69;;;15.87;33.28
10992;BME280;5549;47.028;15.514;2022-12-29T13:23:09;96589.97;;;15.87;33.07
10992;BME280;5549;47.028;15.514;2022-12-29T13:25:47;96593.97;;;15.91;33.67
10992;BME280;5549;47.028;15.514;2022-12-29T13:28:22;96592.97;;;15.92;33.38
10992;BME280;5549;47.028;15.514;2022-12-29T13:31:00;96592.66;;;16.03;33.06
10992;BME280;5549;47.028;15.514;2022-12-29T13:33:40;96596.66;;;16.07;33.14
10992;BME280;5549;47.028;15.514;2022-12-29T13:36:22;96596.31;;;16.10;32.40
10992;BME280;5549;47.028;15.514;2022-12-29T13:39:02;96591.00;;;16.02;33.38
10992;BME280;5549;47.028;15.514;2022-12-29T13:41:35;96597.63;;;15.98;33.36
10992;BME280;5549;47.028;15.514;2022-12-29T13:44:07;96593.47;;;15.95;33.40
10992;BME280;5549;47.028;15.514;2022-12-29T13:46:42;96595.66;;;16.08;34.24
10992;BME280;5549;47.028;15.514;2022-12-29T13:49:14;96603.31;;;16.27;34.01
10992;BME280;5549;47.028;15.514;2022-12-29T13:51:49;96598.38;;;16.41;33.56